Girard, Louisiana
Current Conditions -  °F | °C
As of 1:53 PM on Thursday 30 Oct 2014 (Local Time) from KMLU Reporting Station
Clear Clear  
Wind Chill: 71°   Ceiling: Unl
Heat Index: 71°   Visibility: 10mi
Dew Point: 45°   Wind: 3mph
Humidity: 39%   Direction: NA
Pressure: 30.12"   Gusts: NA
Location:  32.4475°N, 91.7992°W
Report Text: KMLU 301853Z VRB03KT 10SM CLR 22/07 A3012 RMK AO2 SLP198 T02170072
Loading
Personal Weather Stations






























Interactive Weather Map
Tropical Storm Tracking
New forecast layout! Learn more

10-Day Weather Forecast

Advertisements
Track Severe Weather on mobile